Terminal Aerodrome Forecast
Issued by NWS

Home | Current Version | Previous Version | Text Only | Print | Product List | Glossary On
Versions: 1 2 3 4 5 6 7 8 9 10 11 12 13
000
FTUS43 KAPX 031720
TAFMBL
TAF
KMBL 031720Z 0318/0418 24011KT P6SM FEW250
     FM032100 21013KT P6SM BKN200
     FM040000 24008KT P6SM OVC090
     FM040200 22005KT P6SM -SHRA OVC050
     FM040400 22004KT 6SM -SHRA OVC025
     FM040600 31004KT 6SM -SHRA OVC012
     FM040800 32005KT P6SM VCSH OVC007
     FM041100 36008KT P6SM OVC007
      AMD LTD TO CLD VIS AND WIND=

USA.gov is the U.S. government's official web portal to all federal, state and local government web resources and services.